createdAt,value
2023-03-26T00:00:00.226Z,100682.78
2023-03-26T00:02:43.170Z,100699.03
2023-03-26T00:05:34.469Z,100683.81
2023-03-26T00:08:18.813Z,100669.81
2023-03-26T00:11:05.761Z,100689.47
2023-03-26T00:16:33.046Z,100695.66
2023-03-26T00:19:21.518Z,100689.56
2023-03-26T00:21:55.742Z,100700.72
2023-03-26T00:24:34.006Z,100718.81
2023-03-26T00:27:12.931Z,100713.72
2023-03-26T00:29:48.446Z,100707.25
2023-03-26T00:35:28.562Z,100699.03
2023-03-26T00:38:04.342Z,100707.16
2023-03-26T00:40:47.295Z,100688.09
2023-03-26T00:43:37.649Z,100705.31
2023-03-26T00:46:17.757Z,100697.81
2023-03-26T00:48:55.504Z,100685.41
2023-03-26T00:51:36.092Z,100691.22
2023-03-26T00:54:12.501Z,100692.41
2023-03-26T00:57:05.594Z,100698.72
2023-03-26T00:59:40.106Z,100695.81
2023-03-26T01:02:28.530Z,100715.22
2023-03-26T01:05:09.769Z,100719.50
2023-03-26T01:07:47.230Z,100713.28
2023-03-26T01:10:23.537Z,100702.84
2023-03-26T01:12:56.597Z,100691.22
2023-03-26T01:15:34.168Z,100712.44
2023-03-26T01:21:09.029Z,100685.16
2023-03-26T01:24:06.721Z,100694.63
2023-03-26T01:27:09.808Z,100713.63
2023-03-26T01:30:08.275Z,100674.06
2023-03-26T01:33:15.401Z,100692.34
2023-03-26T01:36:40.737Z,100697.94
2023-03-26T01:39:45.099Z,100696.44
2023-03-26T01:42:23.308Z,100672.19
2023-03-26T01:51:22.636Z,100664.03
2023-03-26T01:54:08.045Z,100653.59
2023-03-26T01:57:13.990Z,100648.09
2023-03-26T02:00:17.218Z,100648.63
2023-03-26T02:03:40.603Z,100651.25
2023-03-26T02:06:27.900Z,100661.56
2023-03-26T02:09:22.627Z,100652.22
2023-03-26T02:12:22.371Z,100638.97
2023-03-26T02:14:55.388Z,100641.69
2023-03-26T02:17:42.886Z,100637.59
2023-03-26T02:23:17.395Z,100627.16
2023-03-26T02:25:55.755Z,100614.50
2023-03-26T02:31:32.022Z,100629.78
2023-03-26T02:34:07.578Z,100619.69
2023-03-26T02:37:02.161Z,100617.16
2023-03-26T02:39:59.334Z,100638.56
2023-03-26T02:42:41.303Z,100599.44
2023-03-26T02:45:59.816Z,100604.38
2023-03-26T02:48:39.357Z,100609.22
2023-03-26T02:51:26.328Z,100629.09
2023-03-26T02:57:33.306Z,100594.00
2023-03-26T03:00:24.419Z,100618.69
2023-03-26T03:03:27.697Z,100608.84
2023-03-26T03:08:59.192Z,100587.25
2023-03-26T03:11:53.592Z,100604.47
2023-03-26T03:14:36.427Z,100590.91
2023-03-26T03:22:58.901Z,100575.44
2023-03-26T03:25:44.490Z,100589.25
2023-03-26T03:28:26.965Z,100584.63
2023-03-26T03:31:02.721Z,100590.28
2023-03-26T03:33:39.404Z,100575.75
2023-03-26T03:36:19.793Z,100574.34
2023-03-26T03:38:55.002Z,100578.28
2023-03-26T03:41:31.364Z,100590.66
2023-03-26T03:44:08.134Z,100584.78
2023-03-26T03:46:55.658Z,100578.03
2023-03-26T03:49:31.382Z,100582.25
2023-03-26T03:52:17.032Z,100570.00
2023-03-26T03:55:09.887Z,100590.50
2023-03-26T03:57:42.117Z,100589.34
2023-03-26T04:00:20.536Z,100579.69
2023-03-26T04:03:14.288Z,100570.44
2023-03-26T04:06:05.755Z,100568.00
2023-03-26T04:08:43.835Z,100550.81
2023-03-26T04:11:23.167Z,100548.84
2023-03-26T04:14:04.813Z,100559.47
2023-03-26T04:16:43.393Z,100542.72
2023-03-26T04:19:51.901Z,100538.56
2023-03-26T04:22:33.950Z,100532.50
2023-03-26T04:25:39.235Z,100531.41
2023-03-26T04:28:35.432Z,100545.09
2023-03-26T04:34:46.066Z,100538.84
2023-03-26T04:37:57.066Z,100534.34
2023-03-26T04:40:47.318Z,100534.06
2023-03-26T04:43:33.236Z,100534.97
2023-03-26T04:46:07.852Z,100534.69
2023-03-26T04:49:04.470Z,100544.78
2023-03-26T04:51:59.369Z,100540.03
2023-03-26T04:54:42.139Z,100535.38
2023-03-26T04:57:41.772Z,100545.09
2023-03-26T05:03:26.360Z,100536.59
2023-03-26T05:06:00.108Z,100542.56
2023-03-26T05:08:38.757Z,100548.50
2023-03-26T05:11:17.470Z,100552.28
2023-03-26T05:14:02.833Z,100537.59
2023-03-26T05:16:46.699Z,100535.03
2023-03-26T05:19:25.477Z,100535.03
2023-03-26T05:22:12.804Z,100529.34
2023-03-26T05:28:03.350Z,100523.38
2023-03-26T05:30:49.358Z,100523.69
2023-03-26T05:33:42.725Z,100544.28
2023-03-26T05:36:20.808Z,100532.44
2023-03-26T05:41:39.922Z,100511.09
2023-03-26T05:44:21.880Z,100503.53
2023-03-26T05:47:27.285Z,100509.84
2023-03-26T05:50:14.240Z,100508.88
2023-03-26T05:53:08.465Z,100500.25
2023-03-26T05:55:59.106Z,100520.03
2023-03-26T05:58:57.179Z,100495.44
2023-03-26T06:01:43.329Z,100490.66
2023-03-26T06:04:25.651Z,100495.59
2023-03-26T06:07:03.970Z,100485.44
2023-03-26T06:12:43.005Z,100483.03
2023-03-26T06:18:21.676Z,100484.75
2023-03-26T06:20:58.175Z,100497.06
2023-03-26T06:23:41.198Z,100475.16
2023-03-26T06:26:17.677Z,100473.47
2023-03-26T06:29:16.236Z,100485.63
2023-03-26T06:32:18.476Z,100481.38
2023-03-26T06:35:22.324Z,100466.13
2023-03-26T06:38:04.496Z,100476.28
2023-03-26T06:40:57.657Z,100478.66
2023-03-26T06:43:43.557Z,100493.47
2023-03-26T06:46:13.817Z,100484.19
2023-03-26T06:48:52.205Z,100460.63
2023-03-26T06:51:27.292Z,100469.06
2023-03-26T06:54:18.304Z,100474.03
2023-03-26T06:57:02.749Z,100471.22
2023-03-26T06:59:37.850Z,100473.78
2023-03-26T07:02:15.752Z,100472.91
2023-03-26T07:05:04.222Z,100473.19
2023-03-26T07:07:47.387Z,100466.81
2023-03-26T07:10:26.456Z,100464.44
2023-03-26T07:13:21.078Z,100447.81
2023-03-26T07:16:25.414Z,100456.25
2023-03-26T07:19:04.397Z,100454.00
2023-03-26T07:21:37.935Z,100454.13
2023-03-26T07:24:13.777Z,100481.22
2023-03-26T07:27:24.208Z,100476.84
2023-03-26T07:30:24.233Z,100459.63
2023-03-26T07:33:18.934Z,100478.25
2023-03-26T07:36:09.808Z,100482.44
2023-03-26T07:38:51.908Z,100483.59
2023-03-26T07:42:11.049Z,100470.59
2023-03-26T07:47:57.236Z,100482.69
2023-03-26T07:50:44.634Z,100486.91
2023-03-26T07:53:26.958Z,100488.59
2023-03-26T07:56:58.882Z,100495.81
2023-03-26T07:59:43.677Z,100491.47
2023-03-26T08:02:21.136Z,100491.72
2023-03-26T08:05:36.518Z,100467.84
2023-03-26T08:08:37.310Z,100493.56
2023-03-26T08:11:38.887Z,100489.72
2023-03-26T08:14:31.504Z,100502.28
2023-03-26T08:17:43.944Z,100464.91
2023-03-26T08:20:32.888Z,100500.16
2023-03-26T08:26:42.337Z,100498.28
2023-03-26T08:29:33.354Z,100484.00
2023-03-26T08:32:32.714Z,100499.53
2023-03-26T08:35:29.649Z,100471.88
2023-03-26T08:38:11.365Z,100491.34
2023-03-26T08:41:34.747Z,100505.97
2023-03-26T08:44:20.763Z,100505.03
2023-03-26T08:47:05.178Z,100506.72
2023-03-26T08:50:32.080Z,100502.34
2023-03-26T08:53:19.590Z,100505.97
2023-03-26T08:56:23.345Z,100509.78
2023-03-26T08:59:20.076Z,100510.63
2023-03-26T09:02:27.312Z,100516.97
2023-03-26T09:05:14.608Z,100514.41
2023-03-26T09:11:30.733Z,100499.13
2023-03-26T09:14:22.738Z,100526.63
2023-03-26T09:17:23.511Z,100532.69
2023-03-26T09:20:29.641Z,100533.69
2023-03-26T09:23:36.007Z,100531.00
2023-03-26T09:26:35.517Z,100534.91
2023-03-26T09:29:39.860Z,100533.09
2023-03-26T09:32:29.551Z,100527.03
2023-03-26T09:35:47.462Z,100527.88
2023-03-26T09:38:35.709Z,100539.56
2023-03-26T09:41:48.556Z,100545.88
2023-03-26T09:44:35.748Z,100529.44
2023-03-26T09:47:37.761Z,100556.00
2023-03-26T09:53:33.683Z,100541.84
2023-03-26T09:56:31.744Z,100563.56
2023-03-26T09:59:34.511Z,100564.38
2023-03-26T10:02:45.529Z,100573.41
2023-03-26T10:05:49.912Z,100571.97
2023-03-26T10:08:32.341Z,100586.91
2023-03-26T10:11:29.606Z,100572.25
2023-03-26T10:14:26.627Z,100591.91
2023-03-26T10:17:32.651Z,100594.44
2023-03-26T10:20:54.861Z,100610.78
2023-03-26T10:23:43.064Z,100614.16
2023-03-26T10:26:35.075Z,100611.47
2023-03-26T10:29:46.213Z,100610.66
2023-03-26T10:32:39.520Z,100624.03
2023-03-26T10:35:41.623Z,100617.25
2023-03-26T10:38:52.107Z,100619.19
2023-03-26T10:48:21.124Z,100642.53
2023-03-26T10:51:15.075Z,100649.56
2023-03-26T10:54:14.531Z,100665.81
2023-03-26T10:56:55.538Z,100645.00
2023-03-26T10:59:37.807Z,100640.00
2023-03-26T11:02:30.924Z,100673.22
2023-03-26T11:05:37.528Z,100689.16
2023-03-26T11:08:33.415Z,100664.03
2023-03-26T11:11:22.774Z,100695.75
2023-03-26T11:14:15.080Z,100704.00
2023-03-26T11:17:39.198Z,100707.38
2023-03-26T11:23:45.804Z,100720.28
2023-03-26T11:27:15.532Z,100715.91
2023-03-26T11:30:28.662Z,100730.25
2023-03-26T11:33:16.431Z,100704.03
2023-03-26T11:36:04.181Z,100741.91
2023-03-26T11:38:54.692Z,100735.50
2023-03-26T11:41:40.377Z,100730.41
2023-03-26T11:45:04.323Z,100734.66
2023-03-26T11:48:59.856Z,100766.81
2023-03-26T11:52:04.720Z,100781.75
2023-03-26T11:55:08.047Z,100775.72
2023-03-26T11:58:02.890Z,100765.25
2023-03-26T12:00:48.369Z,100787.13
2023-03-26T12:03:34.006Z,100787.00
2023-03-26T12:06:37.476Z,100806.78
2023-03-26T12:09:34.852Z,100798.28
2023-03-26T12:18:33.740Z,100809.47
2023-03-26T12:24:33.688Z,100825.50
2023-03-26T12:27:30.324Z,100840.41
2023-03-26T12:30:25.424Z,100834.22
2023-03-26T12:33:24.339Z,100829.38
2023-03-26T12:35:55.343Z,100806.53
2023-03-26T12:39:16.303Z,100833.88
2023-03-26T12:44:43.637Z,100846.13
2023-03-26T12:44:59.253Z,100829.25
2023-03-26T12:48:04.316Z,100828.16
2023-03-26T12:50:42.591Z,100823.53
2023-03-26T12:53:36.454Z,100860.34
2023-03-26T12:56:28.785Z,100830.09
2023-03-26T12:59:54.096Z,100832.03
2023-03-26T13:02:42.323Z,100861.69
2023-03-26T13:05:38.552Z,100864.81
2023-03-26T13:08:23.470Z,100860.69
2023-03-26T13:10:58.985Z,100867.47
2023-03-26T13:14:07.626Z,100865.56
2023-03-26T13:16:41.276Z,100859.69
2023-03-26T13:19:28.747Z,100875.16
2023-03-26T13:22:11.727Z,100880.59
2023-03-26T13:25:07.550Z,100884.13
2023-03-26T13:28:16.685Z,100872.09
2023-03-26T13:30:48.947Z,100888.13
2023-03-26T13:33:40.829Z,100889.69
2023-03-26T13:36:53.643Z,100878.16
2023-03-26T13:39:26.394Z,100888.22
2023-03-26T13:42:56.950Z,100900.03
2023-03-26T13:45:59.373Z,100899.75
2023-03-26T13:48:37.865Z,100873.63
2023-03-26T13:51:31.823Z,100890.66
2023-03-26T13:54:33.032Z,100902.78
2023-03-26T13:57:23.372Z,100885.19
2023-03-26T14:00:00.683Z,100910.94
2023-03-26T14:02:43.078Z,100895.72
2023-03-26T14:05:28.307Z,100899.25
2023-03-26T14:08:08.634Z,100922.59
2023-03-26T14:10:53.912Z,100903.34
2023-03-26T14:13:39.132Z,100934.34
2023-03-26T14:16:22.295Z,100918.16
2023-03-26T14:19:06.609Z,100932.75
2023-03-26T14:22:02.067Z,100933.75
2023-03-26T14:28:21.408Z,100942.59
2023-03-26T14:31:01.498Z,100939.22
2023-03-26T14:34:11.775Z,100947.22
2023-03-26T14:37:09.106Z,100949.88
2023-03-26T14:39:51.691Z,100943.94
2023-03-26T14:42:30.917Z,100936.84
2023-03-26T14:45:24.302Z,100934.19
2023-03-26T14:48:33.608Z,100934.31
2023-03-26T14:51:42.040Z,100911.09
2023-03-26T14:54:28.876Z,100923.25
2023-03-26T14:57:31.048Z,100918.38
2023-03-26T15:00:08.645Z,100921.31
2023-03-26T15:03:07.977Z,100929.19
2023-03-26T15:05:58.949Z,100935.63
2023-03-26T15:09:14.825Z,100924.94
2023-03-26T15:12:14.949Z,100923.25
2023-03-26T15:15:05.941Z,100927.59
2023-03-26T15:17:50.441Z,100945.44
2023-03-26T15:20:41.233Z,100941.94
2023-03-26T15:23:46.664Z,100952.75
2023-03-26T15:26:38.706Z,100953.81
2023-03-26T15:29:42.817Z,100958.31
2023-03-26T15:32:53.223Z,100965.47
2023-03-26T15:35:26.736Z,100960.84
2023-03-26T15:38:14.731Z,100956.47
2023-03-26T15:41:06.835Z,100952.97
2023-03-26T15:47:07.530Z,100951.50
2023-03-26T15:50:04.738Z,100944.47
2023-03-26T15:52:57.711Z,100933.56
2023-03-26T15:56:01.217Z,100942.41
2023-03-26T15:58:37.002Z,100964.09
2023-03-26T16:01:32.640Z,100971.16
2023-03-26T16:04:40.645Z,100954.91
2023-03-26T16:07:43.363Z,100975.88
2023-03-26T16:10:51.198Z,100976.78
2023-03-26T16:13:53.162Z,100982.13
2023-03-26T16:16:30.056Z,100958.16
2023-03-26T16:19:25.723Z,100962.00
2023-03-26T16:22:03.742Z,100977.81
2023-03-26T16:24:36.755Z,101004.03
2023-03-26T16:27:32.564Z,101004.88
2023-03-26T16:30:14.069Z,101012.88
2023-03-26T16:33:11.660Z,101008.00
2023-03-26T16:35:54.463Z,101002.03
2023-03-26T16:38:31.004Z,101000.09
2023-03-26T16:41:25.071Z,101003.31
2023-03-26T16:44:01.257Z,101010.47
2023-03-26T16:46:36.647Z,101008.75
2023-03-26T16:49:41.261Z,100977.84
2023-03-26T16:52:52.170Z,100993.19
2023-03-26T16:55:31.332Z,101002.78
2023-03-26T16:58:16.001Z,100992.97
2023-03-26T17:01:23.479Z,100966.53
2023-03-26T17:04:26.152Z,100993.81
2023-03-26T17:07:19.210Z,100973.34
2023-03-26T17:10:07.381Z,100998.53
2023-03-26T17:12:43.998Z,101000.22
2023-03-26T17:15:28.864Z,100998.31
2023-03-26T17:18:25.589Z,100987.63
2023-03-26T17:21:16.431Z,100989.75
2023-03-26T17:24:15.726Z,100994.75
2023-03-26T17:27:03.676Z,100994.03
2023-03-26T17:30:01.776Z,100987.31
2023-03-26T17:33:11.628Z,100993.19
2023-03-26T17:35:57.843Z,100972.72
2023-03-26T17:38:50.224Z,100964.97
2023-03-26T17:42:02.419Z,100984.44
2023-03-26T17:45:04.445Z,100974.59
2023-03-26T17:48:07.732Z,100980.78
2023-03-26T17:51:21.769Z,100976.56
2023-03-26T17:53:57.950Z,100958.53
2023-03-26T17:56:38.343Z,100970.59
2023-03-26T17:59:14.101Z,100947.97
2023-03-26T18:01:57.600Z,100944.81
2023-03-26T18:04:43.935Z,100941.38
2023-03-26T18:07:37.211Z,100973.97
2023-03-26T18:10:43.320Z,100960.75
2023-03-26T18:13:36.781Z,100947.53
2023-03-26T18:16:49.707Z,100953.72
2023-03-26T18:19:24.817Z,100940.09
2023-03-26T18:22:00.528Z,100930.50
2023-03-26T18:24:36.243Z,100932.19
2023-03-26T18:27:27.959Z,100912.72
2023-03-26T18:30:06.054Z,100931.75
2023-03-26T18:32:50.964Z,100923.69
2023-03-26T18:38:13.869Z,100911.75
2023-03-26T18:40:47.900Z,100909.81
2023-03-26T18:43:34.879Z,100902.78
2023-03-26T18:46:23.938Z,100932.81
2023-03-26T18:49:01.205Z,100902.78
2023-03-26T18:51:56.253Z,100904.25
2023-03-26T18:54:32.312Z,100921.50
2023-03-26T18:57:45.831Z,100921.50
2023-03-26T19:00:52.789Z,100899.38
2023-03-26T19:03:29.338Z,100924.03
2023-03-26T19:06:04.320Z,100933.59
2023-03-26T19:08:38.051Z,100932.41
2023-03-26T19:11:28.926Z,100918.44
2023-03-26T19:14:19.643Z,100938.59
2023-03-26T19:17:00.626Z,100936.88
2023-03-26T19:20:03.303Z,100930.94
2023-03-26T19:22:40.896Z,100936.72
2023-03-26T19:25:27.611Z,100933.94
2023-03-26T19:28:00.178Z,100941.09
2023-03-26T19:30:41.768Z,100924.78
2023-03-26T19:33:23.096Z,100948.63
2023-03-26T19:36:17.322Z,100937.56
2023-03-26T19:39:05.753Z,100956.75
2023-03-26T19:41:44.186Z,100930.44
2023-03-26T19:44:32.970Z,100951.63
2023-03-26T19:47:35.124Z,100957.94
2023-03-26T19:50:38.323Z,100934.81
2023-03-26T19:53:19.066Z,100951.63
2023-03-26T19:56:00.281Z,100952.47
2023-03-26T19:58:44.913Z,100935.69
2023-03-26T20:01:37.943Z,100954.31
2023-03-26T20:04:14.986Z,100925.91
2023-03-26T20:06:48.260Z,100943.16
2023-03-26T20:09:20.912Z,100950.63
2023-03-26T20:11:51.902Z,100951.69
2023-03-26T20:14:28.678Z,100935.09
2023-03-26T20:17:01.385Z,100935.94
2023-03-26T20:19:31.344Z,100950.53
2023-03-26T20:22:12.539Z,100945.50
2023-03-26T20:24:45.701Z,100945.00
2023-03-26T20:27:22.492Z,100946.59
2023-03-26T20:30:08.065Z,100941.56
2023-03-26T20:33:12.772Z,100935.50
2023-03-26T20:35:49.046Z,100948.50
2023-03-26T20:38:26.554Z,100940.00
2023-03-26T20:44:11.939Z,100958.09
2023-03-26T20:46:41.878Z,100960.78
2023-03-26T20:49:17.648Z,100967.28
2023-03-26T20:51:53.319Z,100952.63
2023-03-26T20:54:27.644Z,100958.28
2023-03-26T20:57:03.361Z,100972.81
2023-03-26T20:59:33.029Z,100961.25
2023-03-26T21:02:09.672Z,100977.34
2023-03-26T21:04:42.533Z,100962.09
2023-03-26T21:07:18.171Z,100975.59
2023-03-26T21:13:01.684Z,100990.78
2023-03-26T21:15:31.043Z,100991.22
2023-03-26T21:18:00.870Z,100988.97
2023-03-26T21:20:31.148Z,100986.56
2023-03-26T21:23:05.509Z,100986.13
2023-03-26T21:25:35.199Z,100988.44
2023-03-26T21:28:14.096Z,100995.16
2023-03-26T21:30:44.641Z,100991.66
2023-03-26T21:33:15.340Z,100999.09
2023-03-26T21:35:46.375Z,100997.59
2023-03-26T21:38:25.172Z,100998.34
2023-03-26T21:40:59.002Z,101003.06
2023-03-26T21:43:28.778Z,101005.09
2023-03-26T21:45:58.906Z,100982.56
2023-03-26T21:48:29.723Z,100994.75
2023-03-26T21:51:03.834Z,101006.31
2023-03-26T21:53:33.681Z,101003.38
2023-03-26T21:56:25.972Z,101020.22
2023-03-26T21:59:34.688Z,101014.78
2023-03-26T22:02:21.470Z,101026.09
2023-03-26T22:04:56.399Z,101034.63
2023-03-26T22:07:56.391Z,101038.34
2023-03-26T22:10:25.571Z,101056.31
2023-03-26T22:12:54.723Z,101064.22
2023-03-26T22:15:23.696Z,101059.88
2023-03-26T22:17:57.068Z,101064.16
2023-03-26T22:20:26.606Z,101085.63
2023-03-26T22:22:56.649Z,101092.66
2023-03-26T22:25:28.382Z,101094.19
2023-03-26T22:27:58.967Z,101096.25
2023-03-26T22:30:28.734Z,101100.25
2023-03-26T22:32:58.296Z,101105.75
2023-03-26T22:35:28.201Z,101102.97
2023-03-26T22:38:01.058Z,101110.28
2023-03-26T22:40:33.583Z,101106.25
2023-03-26T22:43:03.346Z,101120.78
2023-03-26T22:45:32.389Z,101121.84
2023-03-26T22:48:03.464Z,101117.63
2023-03-26T22:50:33.903Z,101119.66
2023-03-26T22:53:03.134Z,101119.34
2023-03-26T22:55:32.061Z,101125.31
2023-03-26T22:58:01.067Z,101127.06
2023-03-26T23:00:30.146Z,101131.81
2023-03-26T23:03:01.663Z,101128.72
2023-03-26T23:05:30.872Z,101129.81
2023-03-26T23:07:59.843Z,101132.16
2023-03-26T23:10:31.501Z,101131.09
2023-03-26T23:13:00.490Z,101136.03
2023-03-26T23:15:30.005Z,101132.38
2023-03-26T23:18:00.443Z,101141.75
2023-03-26T23:20:29.419Z,101145.44
2023-03-26T23:22:58.425Z,101146.28
2023-03-26T23:25:30.007Z,101151.09
2023-03-26T23:27:58.981Z,101139.00
2023-03-26T23:30:27.958Z,101149.47
2023-03-26T23:32:58.781Z,101163.78
2023-03-26T23:35:27.851Z,101152.66
2023-03-26T23:37:58.630Z,101161.19
2023-03-26T23:40:27.614Z,101158.13
2023-03-26T23:42:57.113Z,101159.19
2023-03-26T23:45:26.109Z,101160.44
2023-03-26T23:47:55.233Z,101170.63
2023-03-26T23:50:25.058Z,101177.66
2023-03-26T23:52:55.132Z,101166.75
2023-03-26T23:55:24.087Z,101177.84
2023-03-26T23:57:53.148Z,101174.22
